Time;durP1;ratioP1;P1;durP2;ratioP2;P2;SDS_P1;SDS_P2;PMS_P1;PMS_P2;Temp;Humidity;BMP_temperature;BMP_pressure;BME280_temperature;BME280_humidity;BME280_pressure;Samples;Min_cycle;Max_cycle;Signal;HPM_P1;HPM_P2
2022/03/01 00:01:44;;;;;;;21.15;12.73;;;;;;;;;;5120032;28;20049;-94
2022/03/01 00:04:10;;;;;;;20.08;13.32;;;;;;;;;;5102073;28;20325;-95
2022/03/01 00:06:36;;;;;;;20.33;13.00;;;;;;;;;;5102122;28;20049;-94
2022/03/01 00:09:02;;;;;;;24.60;14.82;;;;;;;;;;5120087;28;20084;-94
2022/03/01 00:11:28;;;;;;;23.98;14.60;;;;;;;;;;5119740;28;20043;-94
2022/03/01 00:13:55;;;;;;;24.08;13.95;;;;;;;;;;5120099;28;20019;-94
2022/03/01 00:19:27;;;;;;;20.85;12.02;;;;;;;;;;5120002;28;20096;-94
2022/03/01 00:21:53;;;;;;;21.67;12.02;;;;;;;;;;5119724;28;20028;-94
2022/03/01 00:24:19;;;;;;;18.42;11.57;;;;;;;;;;5101687;28;20011;-94
2022/03/01 00:26:45;;;;;;;19.23;12.13;;;;;;;;;;5119894;28;20065;-95
2022/03/01 00:29:12;;;;;;;16.50;10.25;;;;;;;;;;5119708;28;20030;-95
2022/03/01 00:31:38;;;;;;;17.27;10.48;;;;;;;;;;5119548;28;20022;-93
2022/03/01 00:34:04;;;;;;;17.00;10.35;;;;;;;;;;5101489;28;20110;-94
2022/03/01 00:36:30;;;;;;;17.42;10.63;;;;;;;;;;5119539;28;20050;-93
2022/03/01 00:38:56;;;;;;;16.70;10.15;;;;;;;;;;5101432;28;20023;-94
2022/03/01 00:41:22;;;;;;;20.80;10.45;;;;;;;;;;5119507;28;20031;-94
2022/03/01 00:43:48;;;;;;;15.20;9.63;;;;;;;;;;5119411;28;20102;-94
2022/03/01 00:46:14;;;;;;;17.50;10.93;;;;;;;;;;5119295;28;20031;-94
2022/03/01 00:48:40;;;;;;;16.95;10.43;;;;;;;;;;5119273;28;20019;-94
2022/03/01 00:51:06;;;;;;;18.17;11.07;;;;;;;;;;5100771;28;20051;-95
2022/03/01 00:53:32;;;;;;;16.80;10.60;;;;;;;;;;5118931;28;20037;-95
2022/03/01 00:55:59;;;;;;;16.10;10.05;;;;;;;;;;5119083;28;20399;-96
2022/03/01 00:58:25;;;;;;;16.40;9.75;;;;;;;;;;5097614;28;20031;-94
2022/03/01 01:00:51;;;;;;;17.30;9.95;;;;;;;;;;5106510;28;20020;-93
2022/03/01 01:06:22;;;;;;;15.20;9.20;;;;;;;;;;5123079;28;20035;-96
2022/03/01 01:08:48;;;;;;;15.93;8.15;;;;;;;;;;5119872;28;20053;-93
2022/03/01 01:11:14;;;;;;;16.35;9.23;;;;;;;;;;5118766;28;20401;-93
2022/03/01 01:13:40;;;;;;;12.85;8.45;;;;;;;;;;5118841;28;20024;-92
2022/03/01 01:16:06;;;;;;;12.55;8.35;;;;;;;;;;5118598;28;20398;-92
2022/03/01 01:18:32;;;;;;;13.13;8.57;;;;;;;;;;5118624;28;20028;-94
2022/03/01 01:20:58;;;;;;;13.27;8.40;;;;;;;;;;5118405;28;20027;-95
2022/03/01 01:23:24;;;;;;;16.77;9.32;;;;;;;;;;5118736;28;20313;-95
2022/03/01 01:25:50;;;;;;;14.68;8.65;;;;;;;;;;5118144;28;20397;-95
2022/03/01 01:28:16;;;;;;;12.38;7.30;;;;;;;;;;5118450;28;20034;-95
2022/03/01 01:30:43;;;;;;;12.75;7.95;;;;;;;;;;5118875;28;20034;-96
2022/03/01 01:33:27;;;;;;;13.30;8.27;;;;;;;;;;5118394;28;20024;-95
2022/03/01 01:35:53;;;;;;;14.80;8.13;;;;;;;;;;5118318;28;20066;-96
2022/03/01 01:38:19;;;;;;;12.68;8.05;;;;;;;;;;5118491;28;20317;-96
2022/03/01 01:40:45;;;;;;;14.32;8.02;;;;;;;;;;5119045;28;20024;-95
2022/03/01 01:43:12;;;;;;;13.30;8.07;;;;;;;;;;5118627;28;20484;-96
2022/03/01 01:45:38;;;;;;;11.75;7.50;;;;;;;;;;5118107;28;20119;-94
2022/03/01 01:51:07;;;;;;;14.93;8.40;;;;;;;;;;5121203;27;20038;-96
2022/03/01 01:53:33;;;;;;;18.27;8.68;;;;;;;;;;5138933;27;20031;-95
2022/03/01 01:55:59;;;;;;;14.68;8.55;;;;;;;;;;5121077;28;20026;-95
2022/03/01 01:58:25;;;;;;;14.38;8.98;;;;;;;;;;5138948;28;20084;-96
2022/03/01 02:00:51;;;;;;;14.20;8.30;;;;;;;;;;5139001;28;20027;-94
2022/03/01 02:03:36;;;;;;;15.07;8.95;;;;;;;;;;5138763;28;20027;-96
2022/03/01 02:06:02;;;;;;;14.63;7.45;;;;;;;;;;5138893;28;20027;-94
2022/03/01 02:08:32;;;;;;;10.65;7.03;;;;;;;;;;5138817;28;20019;-94
2022/03/01 02:10:59;;;;;;;12.40;7.32;;;;;;;;;;5138471;28;20031;-94
2022/03/01 02:13:25;;;;;;;12.80;7.00;;;;;;;;;;5120443;28;20019;-95
2022/03/01 02:15:51;;;;;;;13.07;7.18;;;;;;;;;;5122592;27;20401;-94
2022/03/01 02:21:21;;;;;;;19.17;7.78;;;;;;;;;;5142865;27;20041;-95
2022/03/01 02:23:47;;;;;;;12.57;6.47;;;;;;;;;;5124180;27;20031;-95
2022/03/01 02:26:13;;;;;;;10.25;6.68;;;;;;;;;;5142261;27;20023;-95
2022/03/01 02:28:39;;;;;;;11.23;7.35;;;;;;;;;;5126291;27;20038;-94
2022/03/01 02:31:05;;;;;;;14.68;7.50;;;;;;;;;;5122948;27;20043;-96
2022/03/01 02:36:34;;;;;;;10.73;6.80;;;;;;;;;;5142227;27;20025;-93
2022/03/01 02:39:00;;;;;;;12.35;7.03;;;;;;;;;;5142061;27;20019;-94
2022/03/01 02:41:26;;;;;;;11.98;6.95;;;;;;;;;;5142250;27;20029;-92
2022/03/01 02:43:53;;;;;;;14.82;6.88;;;;;;;;;;5142654;27;20051;-93
2022/03/01 02:46:19;;;;;;;13.80;6.60;;;;;;;;;;5124090;27;20019;-93
2022/03/01 02:51:49;;;;;;;16.08;6.70;;;;;;;;;;5141003;27;20093;-94
2022/03/01 02:54:15;;;;;;;14.52;6.63;;;;;;;;;;5141724;27;20435;-93
2022/03/01 02:56:41;;;;;;;12.48;7.00;;;;;;;;;;5142143;27;20023;-93
2022/03/01 02:59:07;;;;;;;12.82;6.78;;;;;;;;;;5142190;27;20101;-96
2022/03/01 03:01:34;;;;;;;14.82;7.72;;;;;;;;;;5141896;27;20429;-93
2022/03/01 03:04:00;;;;;;;10.30;6.68;;;;;;;;;;5142303;27;20015;-95
2022/03/01 03:06:27;;;;;;;13.48;7.40;;;;;;;;;;5142024;27;20015;-94
2022/03/01 03:08:53;;;;;;;12.52;7.40;;;;;;;;;;5141626;27;20429;-93
2022/03/01 03:11:19;;;;;;;12.68;6.88;;;;;;;;;;5141680;27;20027;-94
2022/03/01 03:13:45;;;;;;;10.98;6.15;;;;;;;;;;5141490;27;20027;-96
2022/03/01 03:16:11;;;;;;;13.55;7.72;;;;;;;;;;5123232;27;20023;-94
2022/03/01 03:25:03;;;;;;;8.77;5.20;;;;;;;;;;5141719;27;20449;-94
2022/03/01 03:27:29;;;;;;;9.52;5.90;;;;;;;;;;5135833;27;20039;-92
2022/03/01 03:29:55;;;;;;;9.52;6.07;;;;;;;;;;5140912;27;20024;-94
2022/03/01 03:32:22;;;;;;;9.77;6.18;;;;;;;;;;5141387;27;20064;-94
2022/03/01 03:34:48;;;;;;;8.27;5.22;;;;;;;;;;5141443;27;20290;-94
2022/03/01 03:37:15;;;;;;;10.20;6.10;;;;;;;;;;5122752;27;20335;-93
2022/03/01 03:39:41;;;;;;;10.88;5.57;;;;;;;;;;5141051;27;20397;-92
2022/03/01 03:42:07;;;;;;;9.60;5.38;;;;;;;;;;5141442;27;20045;-91
2022/03/01 03:44:33;;;;;;;9.85;5.70;;;;;;;;;;5141364;27;20038;-93
2022/03/01 03:46:59;;;;;;;10.07;5.88;;;;;;;;;;5141342;27;20027;-93
2022/03/01 03:49:25;;;;;;;9.32;4.93;;;;;;;;;;5140692;27;20022;-94
2022/03/01 03:51:51;;;;;;;9.75;6.10;;;;;;;;;;5122702;27;20035;-95
2022/03/01 03:54:19;;;;;;;7.63;5.57;;;;;;;;;;5140990;27;20031;-94
2022/03/01 03:56:46;;;;;;;12.57;6.20;;;;;;;;;;5140983;27;20304;-96
2022/03/01 03:59:12;;;;;;;9.07;6.00;;;;;;;;;;5122746;27;20011;-94
2022/03/01 04:01:38;;;;;;;8.02;5.40;;;;;;;;;;5118921;28;20115;-95
2022/03/01 04:13:15;;;;;;;10.65;5.68;;;;;;;;;;5119908;28;20149;-94
2022/03/01 04:15:41;;;;;;;11.88;5.90;;;;;;;;;;5120173;28;20398;-95
2022/03/01 04:18:07;;;;;;;10.65;6.20;;;;;;;;;;5119998;28;20314;-96
2022/03/01 04:20:33;;;;;;;10.75;6.10;;;;;;;;;;5105694;27;20015;-93
2022/03/01 04:22:59;;;;;;;11.90;7.05;;;;;;;;;;5140607;27;20023;-95
2022/03/01 04:25:25;;;;;;;11.35;5.97;;;;;;;;;;5140510;27;20029;-96
2022/03/01 04:27:51;;;;;;;10.02;6.30;;;;;;;;;;5140508;27;20023;-94
2022/03/01 04:30:18;;;;;;;10.27;6.45;;;;;;;;;;5140157;27;20114;-94
2022/03/01 04:36:25;;;;;;;14.70;7.05;;;;;;;;;;5119809;28;20081;-94
2022/03/01 04:38:51;;;;;;;11.43;6.45;;;;;;;;;;5138071;27;20028;-93
2022/03/01 04:41:17;;;;;;;14.48;6.63;;;;;;;;;;5122286;27;20034;-94
2022/03/01 04:43:43;;;;;;;12.13;6.97;;;;;;;;;;5139964;27;20401;-94
2022/03/01 04:46:10;;;;;;;15.43;6.95;;;;;;;;;;5139499;27;20409;-96
2022/03/01 04:51:40;;;;;;;10.27;6.53;;;;;;;;;;5139533;27;20034;-95
2022/03/01 04:54:06;;;;;;;12.20;6.55;;;;;;;;;;5139951;27;20031;-94
2022/03/01 04:56:32;;;;;;;11.07;7.38;;;;;;;;;;5139598;27;20019;-95
2022/03/01 04:58:58;;;;;;;13.23;6.88;;;;;;;;;;5121119;27;20375;-94
2022/03/01 05:01:25;;;;;;;13.63;6.95;;;;;;;;;;5121578;27;20110;-94
2022/03/01 05:09:58;;;;;;;15.43;8.48;;;;;;;;;;5139851;27;20068;-93
2022/03/01 05:12:24;;;;;;;15.32;8.82;;;;;;;;;;5121063;27;20113;-93
2022/03/01 05:14:50;;;;;;;18.83;9.02;;;;;;;;;;5139191;27;20011;-91
2022/03/01 05:17:19;;;;;;;19.10;10.43;;;;;;;;;;5138915;27;20030;-91
2022/03/01 05:19:45;;;;;;;19.10;9.73;;;;;;;;;;5139358;27;20022;-93
2022/03/01 05:22:11;;;;;;;17.23;9.30;;;;;;;;;;5120713;27;20417;-92
2022/03/01 05:24:38;;;;;;;22.90;10.00;;;;;;;;;;5100229;28;20032;-95
2022/03/01 05:27:04;;;;;;;19.63;10.88;;;;;;;;;;5118765;28;20020;-95
2022/03/01 05:29:30;;;;;;;18.55;9.48;;;;;;;;;;5108186;27;20122;-95
2022/03/01 05:31:56;;;;;;;11.23;7.25;;;;;;;;;;5138543;27;20304;-94
2022/03/01 05:34:22;;;;;;;11.35;6.95;;;;;;;;;;5119627;27;20057;-90
2022/03/01 05:36:48;;;;;;;10.70;6.85;;;;;;;;;;5138464;27;20077;-93
2022/03/01 05:39:14;;;;;;;17.02;10.43;;;;;;;;;;5137586;27;20031;-92
2022/03/01 05:41:40;;;;;;;16.20;9.10;;;;;;;;;;5138633;27;20031;-95
2022/03/01 05:44:06;;;;;;;14.90;7.38;;;;;;;;;;5138881;27;20417;-93
2022/03/01 05:46:33;;;;;;;15.13;7.50;;;;;;;;;;5139080;27;20060;-95
2022/03/01 05:48:59;;;;;;;14.25;7.97;;;;;;;;;;5137870;27;20305;-93
2022/03/01 05:51:25;;;;;;;15.30;8.30;;;;;;;;;;5120514;27;20027;-94
2022/03/01 05:53:53;;;;;;;22.73;12.02;;;;;;;;;;5100114;28;20126;-94
2022/03/01 05:56:19;;;;;;;43.38;24.15;;;;;;;;;;5118854;28;20027;-94
2022/03/01 05:58:45;;;;;;;15.68;8.95;;;;;;;;;;5117925;28;20020;-89
2022/03/01 06:01:11;;;;;;;16.50;9.63;;;;;;;;;;5117778;28;20019;-90
2022/03/01 06:03:37;;;;;;;17.13;9.82;;;;;;;;;;5118177;28;20027;-90
2022/03/01 06:06:03;;;;;;;22.27;11.13;;;;;;;;;;5117660;28;20023;-90
2022/03/01 06:08:29;;;;;;;18.08;9.07;;;;;;;;;;5117988;28;20046;-90
2022/03/01 06:10:55;;;;;;;13.90;8.07;;;;;;;;;;5118274;28;20031;-90
2022/03/01 06:13:21;;;;;;;13.52;7.90;;;;;;;;;;5118277;28;20024;-90
2022/03/01 06:15:48;;;;;;;13.75;7.43;;;;;;;;;;5117849;28;20023;-91
2022/03/01 06:18:15;;;;;;;12.55;6.95;;;;;;;;;;5099769;28;20036;-89
2022/03/01 06:20:41;;;;;;;10.77;6.97;;;;;;;;;;5100055;28;20055;-89
2022/03/01 06:23:07;;;;;;;11.50;6.03;;;;;;;;;;5117411;28;20050;-89
2022/03/01 06:25:33;;;;;;;10.75;6.10;;;;;;;;;;5118061;28;20051;-89
2022/03/01 06:27:59;;;;;;;12.50;6.68;;;;;;;;;;5099639;28;20122;-91
2022/03/01 06:30:25;;;;;;;31.95;14.77;;;;;;;;;;5117831;28;20023;-89
2022/03/01 06:32:51;;;;;;;45.80;16.08;;;;;;;;;;5117883;28;20072;-90
2022/03/01 06:35:17;;;;;;;84.82;23.70;;;;;;;;;;5117858;28;20024;-89
2022/03/01 06:37:43;;;;;;;50.70;18.25;;;;;;;;;;5117560;28;20019;-89
2022/03/01 06:40:12;;;;;;;70.47;18.00;;;;;;;;;;5118002;28;20027;-90
2022/03/01 06:42:38;;;;;;;53.92;15.55;;;;;;;;;;5117667;28;20444;-89
2022/03/01 06:45:06;;;;;;;53.88;18.05;;;;;;;;;;5117783;28;20027;-90
2022/03/01 06:47:32;;;;;;;43.30;16.95;;;;;;;;;;5117554;28;20028;-90
2022/03/01 06:50:00;;;;;;;41.60;12.52;;;;;;;;;;5117496;28;20030;-90
2022/03/01 06:52:26;;;;;;;84.88;23.20;;;;;;;;;;5125952;28;20058;-90
2022/03/01 06:54:52;;;;;;;59.97;17.45;;;;;;;;;;5138092;28;20027;-89
2022/03/01 06:57:18;;;;;;;43.45;13.65;;;;;;;;;;5120266;28;20118;-89
2022/03/01 06:59:45;;;;;;;41.50;11.40;;;;;;;;;;5119326;28;20028;-89
2022/03/01 07:02:11;;;;;;;37.30;11.35;;;;;;;;;;5139666;27;20026;-89
2022/03/01 07:04:37;;;;;;;35.65;12.07;;;;;;;;;;5123650;27;20343;-89
2022/03/01 07:07:05;;;;;;;35.80;12.48;;;;;;;;;;5141917;27;20035;-90
2022/03/01 07:09:31;;;;;;;36.47;11.85;;;;;;;;;;5142003;27;20019;-90
2022/03/01 07:11:57;;;;;;;27.92;8.88;;;;;;;;;;5122913;27;20023;-90
2022/03/01 07:14:23;;;;;;;22.92;8.88;;;;;;;;;;5141670;27;20035;-89
2022/03/01 07:16:49;;;;;;;39.90;13.75;;;;;;;;;;5123653;27;20068;-90
2022/03/01 07:19:16;;;;;;;20.80;9.68;;;;;;;;;;5122945;27;20092;-90
2022/03/01 07:21:42;;;;;;;16.42;9.85;;;;;;;;;;5123460;27;20039;-89
2022/03/01 07:24:08;;;;;;;16.73;8.40;;;;;;;;;;5122991;27;20409;-89
2022/03/01 07:26:34;;;;;;;20.42;11.30;;;;;;;;;;5123203;27;20031;-89
2022/03/01 07:29:00;;;;;;;19.48;9.18;;;;;;;;;;5141525;27;20026;-90
2022/03/01 07:31:26;;;;;;;13.93;8.40;;;;;;;;;;5141243;27;20023;-91
2022/03/01 07:33:53;;;;;;;17.45;10.05;;;;;;;;;;5141186;27;20031;-90
2022/03/01 07:36:19;;;;;;;17.08;10.05;;;;;;;;;;5123118;27;20030;-89
2022/03/01 07:38:45;;;;;;;16.20;9.23;;;;;;;;;;5141297;27;20409;-90
2022/03/01 07:41:11;;;;;;;13.82;8.15;;;;;;;;;;5122594;27;20027;-89
2022/03/01 07:43:39;;;;;;;9.63;6.35;;;;;;;;;;5141013;27;20031;-89
2022/03/01 07:46:10;;;;;;;10.98;6.82;;;;;;;;;;5141113;27;20412;-90
2022/03/01 07:48:37;;;;;;;13.15;7.55;;;;;;;;;;5123064;27;20069;-90
2022/03/01 07:51:03;;;;;;;9.68;6.78;;;;;;;;;;5140918;27;20047;-89
2022/03/01 07:53:29;;;;;;;11.45;6.80;;;;;;;;;;5140704;27;20054;-89
2022/03/01 07:55:55;;;;;;;11.98;6.68;;;;;;;;;;5122782;27;20080;-90
2022/03/01 07:58:21;;;;;;;11.57;6.90;;;;;;;;;;5141028;27;20019;-90
2022/03/01 08:00:47;;;;;;;13.88;7.10;;;;;;;;;;5122759;27;20020;-89
2022/03/01 08:03:13;;;;;;;14.15;7.55;;;;;;;;;;5140612;27;20030;-89
2022/03/01 08:05:39;;;;;;;12.70;7.88;;;;;;;;;;5140362;27;20023;-90
2022/03/01 08:08:05;;;;;;;12.82;7.57;;;;;;;;;;5140599;27;20027;-89
2022/03/01 08:10:31;;;;;;;12.13;7.22;;;;;;;;;;5140747;27;20290;-89
2022/03/01 08:12:57;;;;;;;19.58;7.75;;;;;;;;;;5122137;27;20401;-90
2022/03/01 08:15:26;;;;;;;14.73;7.38;;;;;;;;;;5140364;27;20044;-89
2022/03/01 08:17:53;;;;;;;10.63;6.00;;;;;;;;;;5140545;27;20034;-89
2022/03/01 08:20:20;;;;;;;13.93;6.85;;;;;;;;;;5140472;27;20019;-89
2022/03/01 08:22:46;;;;;;;14.85;8.07;;;;;;;;;;5121942;27;20130;-90
2022/03/01 08:25:13;;;;;;;11.55;7.38;;;;;;;;;;5140389;27;20023;-89
2022/03/01 08:27:39;;;;;;;13.98;7.05;;;;;;;;;;5140413;27;20031;-89
2022/03/01 08:30:06;;;;;;;10.75;6.53;;;;;;;;;;5121847;27;20125;-89
2022/03/01 08:32:32;;;;;;;13.25;6.72;;;;;;;;;;5121840;27;20460;-90
2022/03/01 08:34:58;;;;;;;11.10;6.20;;;;;;;;;;5140018;27;20019;-89
2022/03/01 08:37:24;;;;;;;12.15;6.85;;;;;;;;;;5139982;27;20023;-89
2022/03/01 08:39:50;;;;;;;9.73;6.28;;;;;;;;;;5139962;27;20030;-90
2022/03/01 08:42:16;;;;;;;13.18;6.38;;;;;;;;;;5121918;27;20020;-89
2022/03/01 08:44:42;;;;;;;19.67;8.73;;;;;;;;;;5140028;27;20449;-90
2022/03/01 08:47:08;;;;;;;11.57;6.25;;;;;;;;;;5139925;27;20499;-89
2022/03/01 08:49:34;;;;;;;18.00;11.48;;;;;;;;;;5139865;27;20027;-89
2022/03/01 08:52:00;;;;;;;30.95;12.55;;;;;;;;;;5139692;27;20038;-88
2022/03/01 08:54:27;;;;;;;32.67;11.63;;;;;;;;;;5139874;27;20031;-89
2022/03/01 08:56:53;;;;;;;29.10;10.82;;;;;;;;;;5139685;27;20076;-89
2022/03/01 08:59:19;;;;;;;9.95;6.35;;;;;;;;;;5139632;27;20104;-88
2022/03/01 09:01:45;;;;;;;9.98;6.13;;;;;;;;;;5121435;27;20015;-89
2022/03/01 09:04:11;;;;;;;16.85;8.43;;;;;;;;;;5121128;27;20332;-88
2022/03/01 09:06:37;;;;;;;27.75;16.85;;;;;;;;;;5121427;27;20118;-89
2022/03/01 09:09:03;;;;;;;36.67;18.77;;;;;;;;;;5121057;27;20443;-88
2022/03/01 09:11:30;;;;;;;225.05;127.10;;;;;;;;;;5139534;27;20102;-89
2022/03/01 09:13:56;;;;;;;190.25;106.30;;;;;;;;;;5139410;27;20031;-89
2022/03/01 09:16:22;;;;;;;160.02;94.20;;;;;;;;;;5138924;27;20019;-89
2022/03/01 09:18:48;;;;;;;146.70;79.95;;;;;;;;;;5139138;27;20019;-89
2022/03/01 09:21:14;;;;;;;46.50;31.90;;;;;;;;;;5139381;27;20031;-89
2022/03/01 09:23:42;;;;;;;40.13;28.45;;;;;;;;;;5138716;27;20110;-88
2022/03/01 09:26:08;;;;;;;107.65;52.95;;;;;;;;;;5138986;27;20102;-89
2022/03/01 09:28:34;;;;;;;459.73;216.82;;;;;;;;;;5139283;27;20023;-89
2022/03/01 09:31:01;;;;;;;264.10;134.38;;;;;;;;;;5139129;27;20098;-88
2022/03/01 09:33:27;;;;;;;479.70;279.58;;;;;;;;;;5138954;27;20023;-88
2022/03/01 09:35:54;;;;;;;268.02;135.10;;;;;;;;;;5120996;27;20015;-88
2022/03/01 09:38:20;;;;;;;357.60;163.05;;;;;;;;;;5120199;27;20347;-88
2022/03/01 09:40:48;;;;;;;195.90;89.03;;;;;;;;;;5139094;27;20024;-89
2022/03/01 09:43:14;;;;;;;145.98;64.93;;;;;;;;;;5138860;27;20354;-88
2022/03/01 09:45:40;;;;;;;264.30;120.05;;;;;;;;;;5120198;27;20038;-88
2022/03/01 09:48:06;;;;;;;98.28;46.80;;;;;;;;;;5120854;27;20064;-89
2022/03/01 09:50:32;;;;;;;258.55;130.13;;;;;;;;;;5138674;27;20463;-88
2022/03/01 09:53:00;;;;;;;111.85;61.38;;;;;;;;;;5119643;27;20039;-89
2022/03/01 09:55:28;;;;;;;86.20;47.78;;;;;;;;;;5138644;27;20046;-88
2022/03/01 09:57:56;;;;;;;82.72;47.83;;;;;;;;;;5138570;28;20027;-89
2022/03/01 10:00:22;;;;;;;118.05;61.70;;;;;;;;;;5120314;28;20035;-89
2022/03/01 10:02:53;;;;;;;240.15;95.95;;;;;;;;;;5120555;28;20051;-88
2022/03/01 10:05:19;;;;;;;464.05;155.95;;;;;;;;;;5138590;28;20122;-88
2022/03/01 10:07:46;;;;;;;302.52;100.03;;;;;;;;;;5119853;28;20035;-88
2022/03/01 10:10:16;;;;;;;80.45;28.42;;;;;;;;;;5120534;28;20035;-89
2022/03/01 10:12:42;;;;;;;220.88;62.50;;;;;;;;;;5138625;28;20028;-88
2022/03/01 10:15:10;;;;;;;138.88;39.95;;;;;;;;;;5138581;28;20027;-88
2022/03/01 10:17:37;;;;;;;225.70;66.90;;;;;;;;;;5138488;28;20039;-88
2022/03/01 10:20:06;;;;;;;128.73;36.45;;;;;;;;;;5120506;28;20340;-88
2022/03/01 10:22:32;;;;;;;163.63;48.85;;;;;;;;;;5138675;28;20053;-89
2022/03/01 10:25:08;;;;;;;105.30;29.08;;;;;;;;;;5138584;28;20102;-89
2022/03/01 10:27:35;;;;;;;189.25;50.92;;;;;;;;;;5120456;28;20034;-88
2022/03/01 10:30:02;;;;;;;146.40;42.35;;;;;;;;;;5120439;28;20432;-88
2022/03/01 10:32:28;;;;;;;147.77;39.88;;;;;;;;;;5119674;28;20378;-89
2022/03/01 10:35:00;;;;;;;230.75;64.88;;;;;;;;;;5138324;28;20026;-88
2022/03/01 10:37:29;;;;;;;218.65;61.10;;;;;;;;;;5123444;27;20381;-89
2022/03/01 10:40:15;;;;;;;215.27;63.15;;;;;;;;;;5142669;27;20047;-88
2022/03/01 10:42:41;;;;;;;248.02;69.45;;;;;;;;;;5142227;27;20431;-89
2022/03/01 10:45:09;;;;;;;137.32;42.55;;;;;;;;;;5142215;27;20140;-88
2022/03/01 10:47:35;;;;;;;206.07;62.70;;;;;;;;;;5142192;27;20405;-88
2022/03/01 10:50:06;;;;;;;69.82;26.50;;;;;;;;;;5142385;27;20027;-89
2022/03/01 10:52:42;;;;;;;301.13;92.57;;;;;;;;;;5126402;27;20054;-88
2022/03/01 10:55:22;;;;;;;311.17;100.03;;;;;;;;;;5162596;27;20027;-89
2022/03/01 10:57:56;;;;;;;262.05;83.93;;;;;;;;;;5162736;27;20036;-88
2022/03/01 11:00:22;;;;;;;791.22;315.48;;;;;;;;;;5143960;27;20147;-88
2022/03/01 11:02:48;;;;;;;301.83;103.22;;;;;;;;;;5162496;27;20022;-88
2022/03/01 11:05:14;;;;;;;528.03;189.65;;;;;;;;;;5144045;27;20035;-87
2022/03/01 11:07:40;;;;;;;312.83;107.97;;;;;;;;;;5162770;27;20026;-88
2022/03/01 11:10:07;;;;;;;238.43;82.90;;;;;;;;;;5162593;27;20023;-88
2022/03/01 11:12:34;;;;;;;196.45;74.78;;;;;;;;;;5162518;27;20052;-88
2022/03/01 11:15:07;;;;;;;337.02;123.57;;;;;;;;;;5143616;27;20072;-88
2022/03/01 11:17:58;;;;;;;96.50;36.10;;;;;;;;;;5144024;27;20027;-88
2022/03/01 11:20:25;;;;;;;102.40;44.80;;;;;;;;;;5162282;27;20015;-88
2022/03/01 11:22:57;;;;;;;113.90;45.47;;;;;;;;;;5144045;27;20476;-87
2022/03/01 11:25:24;;;;;;;179.70;72.20;;;;;;;;;;5162228;27;20027;-88
2022/03/01 11:27:52;;;;;;;155.50;63.17;;;;;;;;;;5162328;27;20042;-88
2022/03/01 11:30:25;;;;;;;122.75;52.47;;;;;;;;;;5162325;27;20019;-89
2022/03/01 11:32:54;;;;;;;349.55;138.95;;;;;;;;;;5161778;27;20022;-88
2022/03/01 11:35:22;;;;;;;86.00;36.80;;;;;;;;;;5143631;27;20316;-87
2022/03/01 11:37:58;;;;;;;74.00;32.78;;;;;;;;;;5161992;27;20026;-88
2022/03/01 11:40:25;;;;;;;37.78;18.50;;;;;;;;;;5162095;27;20346;-90
2022/03/01 11:42:51;;;;;;;55.08;27.20;;;;;;;;;;5141716;27;20019;-84
2022/03/01 11:45:18;;;;;;;139.48;64.93;;;;;;;;;;5140530;27;20448;-83
2022/03/01 11:47:44;;;;;;;239.52;109.43;;;;;;;;;;5121670;27;20031;-83
2022/03/01 11:50:21;;;;;;;217.55;103.78;;;;;;;;;;5122131;27;20055;-83
2022/03/01 11:53:07;;;;;;;56.15;29.08;;;;;;;;;;5122108;27;20462;-84
2022/03/01 11:55:41;;;;;;;7.80;4.97;;;;;;;;;;5140429;27;20019;-83
2022/03/01 11:58:07;;;;;;;20.58;10.95;;;;;;;;;;5102492;28;20051;-83
2022/03/01 12:00:35;;;;;;;28.48;13.45;;;;;;;;;;5101273;28;20073;-83
2022/03/01 12:03:01;;;;;;;12.07;6.68;;;;;;;;;;5119207;28;20028;-84
2022/03/01 12:05:27;;;;;;;8.23;4.82;;;;;;;;;;5119386;28;20470;-84
2022/03/01 12:07:54;;;;;;;8.45;5.30;;;;;;;;;;5119643;28;20432;-84
2022/03/01 12:10:25;;;;;;;8.55;5.07;;;;;;;;;;5119777;28;20048;-84
2022/03/01 12:12:54;;;;;;;6.30;3.47;;;;;;;;;;5119792;28;20047;-84
2022/03/01 12:15:31;;;;;;;8.07;4.13;;;;;;;;;;5119081;28;20020;-83
2022/03/01 12:17:58;;;;;;;4.95;3.10;;;;;;;;;;5119588;28;20122;-84
2022/03/01 12:20:25;;;;;;;6.43;3.25;;;;;;;;;;5119362;28;20064;-84
2022/03/01 12:22:51;;;;;;;5.20;3.55;;;;;;;;;;5119145;28;20440;-84
2022/03/01 12:25:17;;;;;;;7.63;3.70;;;;;;;;;;5101353;28;20027;-84
2022/03/01 12:27:43;;;;;;;10.05;4.45;;;;;;;;;;5101325;28;20058;-84
2022/03/01 12:30:10;;;;;;;7.32;4.05;;;;;;;;;;5101238;28;20053;-84
2022/03/01 12:33:05;;;;;;;6.50;4.20;;;;;;;;;;5118967;28;20031;-84
2022/03/01 12:35:31;;;;;;;8.30;4.47;;;;;;;;;;5016754;28;20041;-83
2022/03/01 12:38:07;;;;;;;6.82;4.47;;;;;;;;;;5000678;28;20029;-84
2022/03/01 12:40:33;;;;;;;9.30;4.47;;;;;;;;;;5012725;28;20038;-83
2022/03/01 12:43:00;;;;;;;5.72;4.28;;;;;;;;;;4996279;28;20092;-83
2022/03/01 12:45:37;;;;;;;6.53;4.55;;;;;;;;;;5011759;28;20149;-84
2022/03/01 12:48:04;;;;;;;6.82;4.25;;;;;;;;;;5025820;28;20034;-82
2022/03/01 12:50:31;;;;;;;8.82;4.78;;;;;;;;;;5029132;28;20025;-84
2022/03/01 12:52:58;;;;;;;9.45;4.00;;;;;;;;;;5012267;28;20331;-83
2022/03/01 12:55:24;;;;;;;8.23;4.75;;;;;;;;;;5036220;28;20048;-84
2022/03/01 12:57:51;;;;;;;9.30;4.80;;;;;;;;;;5019284;28;20264;-84
2022/03/01 13:00:18;;;;;;;8.35;4.88;;;;;;;;;;5035099;28;20036;-83
2022/03/01 13:02:54;;;;;;;6.55;4.38;;;;;;;;;;5036209;28;20048;-83
2022/03/01 13:05:38;;;;;;;8.32;4.45;;;;;;;;;;5019436;28;20030;-84
2022/03/01 13:08:14;;;;;;;8.32;4.55;;;;;;;;;;5019660;28;20424;-84
2022/03/01 13:10:40;;;;;;;8.00;4.63;;;;;;;;;;5036601;28;20443;-83
2022/03/01 13:13:07;;;;;;;18.50;8.95;;;;;;;;;;5118306;28;20106;-84
2022/03/01 13:15:33;;;;;;;944.50;78.03;;;;;;;;;;5118222;28;20397;-83
2022/03/01 13:18:03;;;;;;;208.55;18.90;;;;;;;;;;5099868;28;20032;-84
2022/03/01 13:20:29;;;;;;;41.88;17.52;;;;;;;;;;5118285;28;20068;-83
2022/03/01 13:22:59;;;;;;;138.73;49.40;;;;;;;;;;5118154;28;20024;-83
2022/03/01 13:25:25;;;;;;;131.38;43.90;;;;;;;;;;5108428;28;20028;-84
2022/03/01 13:27:53;;;;;;;50.55;16.02;;;;;;;;;;5109944;28;20325;-84
2022/03/01 13:30:26;;;;;;;103.18;28.13;;;;;;;;;;5118062;28;20016;-84
2022/03/01 13:33:06;;;;;;;83.65;25.48;;;;;;;;;;5099702;28;20024;-84
2022/03/01 13:35:32;;;;;;;45.55;15.80;;;;;;;;;;5099864;28;20314;-84
2022/03/01 13:38:02;;;;;;;46.92;16.67;;;;;;;;;;5117906;28;20027;-84
2022/03/01 13:40:30;;;;;;;37.40;13.70;;;;;;;;;;5117809;28;20027;-84
2022/03/01 13:43:11;;;;;;;46.97;17.20;;;;;;;;;;5117827;28;20032;-83
2022/03/01 13:45:38;;;;;;;40.58;14.70;;;;;;;;;;5099390;28;20064;-83
2022/03/01 13:48:12;;;;;;;33.42;13.05;;;;;;;;;;5117933;28;20047;-84
2022/03/01 13:50:39;;;;;;;80.50;27.25;;;;;;;;;;5117726;28;20031;-84
2022/03/01 13:53:09;;;;;;;42.25;15.00;;;;;;;;;;5117690;27;20052;-84
2022/03/01 13:55:36;;;;;;;15.50;6.57;;;;;;;;;;5099203;28;20027;-84
2022/03/01 13:58:03;;;;;;;13.05;5.20;;;;;;;;;;5118084;28;20039;-84
2022/03/01 14:00:37;;;;;;;6.75;4.30;;;;;;;;;;5099350;28;20051;-84
2022/03/01 14:03:09;;;;;;;5.80;3.35;;;;;;;;;;5117682;28;20050;-84
2022/03/01 14:05:38;;;;;;;7.50;3.72;;;;;;;;;;5117734;28;20043;-84
2022/03/01 14:08:05;;;;;;;7.82;4.15;;;;;;;;;;5117522;28;20084;-84
2022/03/01 14:10:39;;;;;;;5.45;3.70;;;;;;;;;;5118391;28;20047;-84
2022/03/01 14:13:05;;;;;;;9.10;5.78;;;;;;;;;;5103688;28;20063;-84
2022/03/01 14:15:35;;;;;;;6.88;4.78;;;;;;;;;;5121529;28;20031;-84
2022/03/01 14:18:01;;;;;;;9.82;4.80;;;;;;;;;;5121999;28;20019;-84
2022/03/01 14:20:28;;;;;;;13.75;4.65;;;;;;;;;;5103956;28;20065;-84
2022/03/01 14:22:54;;;;;;;7.57;4.68;;;;;;;;;;5121595;28;20028;-84
2022/03/01 14:25:20;;;;;;;7.57;4.47;;;;;;;;;;5121448;28;20073;-84
2022/03/01 14:27:46;;;;;;;8.80;4.55;;;;;;;;;;5121586;28;20325;-84
2022/03/01 14:30:13;;;;;;;6.70;4.13;;;;;;;;;;5121455;28;20031;-84
2022/03/01 14:32:39;;;;;;;8.38;4.80;;;;;;;;;;5103150;28;20036;-83
2022/03/01 14:35:05;;;;;;;7.18;4.22;;;;;;;;;;5121470;28;20313;-84
2022/03/01 14:37:32;;;;;;;7.07;3.75;;;;;;;;;;5103103;28;20485;-84
2022/03/01 14:39:58;;;;;;;9.13;3.88;;;;;;;;;;5121469;28;20405;-84
2022/03/01 14:42:24;;;;;;;7.90;4.05;;;;;;;;;;5103792;28;20023;-85
2022/03/01 14:44:50;;;;;;;8.43;3.90;;;;;;;;;;5121234;28;20119;-85
2022/03/01 14:47:16;;;;;;;26.83;6.03;;;;;;;;;;5121553;28;20061;-84
2022/03/01 14:49:42;;;;;;;11.10;5.57;;;;;;;;;;5121381;28;20024;-84
2022/03/01 14:52:12;;;;;;;9.15;4.63;;;;;;;;;;5121319;28;20038;-84
2022/03/01 14:54:39;;;;;;;7.95;3.90;;;;;;;;;;5121060;28;20042;-84
2022/03/01 14:57:08;;;;;;;14.23;8.07;;;;;;;;;;5121115;28;20020;-84
2022/03/01 14:59:34;;;;;;;28.75;14.88;;;;;;;;;;5102001;28;20080;-84
2022/03/01 15:02:01;;;;;;;23.08;12.50;;;;;;;;;;5121186;28;20027;-84
2022/03/01 15:04:27;;;;;;;21.08;11.57;;;;;;;;;;5120805;28;20031;-84
2022/03/01 15:06:53;;;;;;;15.13;8.52;;;;;;;;;;5121093;28;20027;-85
2022/03/01 15:09:19;;;;;;;13.60;8.07;;;;;;;;;;5120777;28;20023;-84
2022/03/01 15:11:45;;;;;;;24.98;16.02;;;;;;;;;;5120797;28;20047;-84